sensor_id;sensor_type;location;lat;lon;timestamp;pressure;altitude;pressure_sealevel;temperature;humidity
50364;BME280;36272;59.400;17.982;2022-10-19T00:04:39;101798.47;;;6.76;76.89
50364;BME280;36272;59.400;17.982;2022-10-19T00:09:42;101783.69;;;6.74;76.48
50364;BME280;36272;59.400;17.982;2022-10-19T00:14:46;101799.50;;;6.67;76.61
50364;BME280;36272;59.400;17.982;2022-10-19T00:19:54;101806.81;;;6.65;76.49
50364;BME280;36272;59.400;17.982;2022-10-19T00:25:05;101818.63;;;6.62;76.03
50364;BME280;36272;59.400;17.982;2022-10-19T00:30:07;101825.75;;;6.62;76.10
50364;BME280;36272;59.400;17.982;2022-10-19T00:35:09;101830.75;;;6.65;75.92
50364;BME280;36272;59.400;17.982;2022-10-19T00:40:11;101838.38;;;6.60;75.74
50364;BME280;36272;59.400;17.982;2022-10-19T00:45:15;101825.75;;;6.53;75.77
50364;BME280;36272;59.400;17.982;2022-10-19T00:50:17;101842.03;;;6.50;75.65
50364;BME280;36272;59.400;17.982;2022-10-19T00:55:19;101844.56;;;6.44;75.72
50364;BME280;36272;59.400;17.982;2022-10-19T01:00:21;101850.38;;;6.39;75.51
50364;BME280;36272;59.400;17.982;2022-10-19T01:05:23;101852.53;;;6.35;75.57
50364;BME280;36272;59.400;17.982;2022-10-19T01:11:22;101846.88;;;6.30;75.54
50364;BME280;36272;59.400;17.982;2022-10-19T01:16:22;101850.03;;;6.25;75.38
50364;BME280;36272;59.400;17.982;2022-10-19T01:21:34;101860.66;;;6.17;75.50
50364;BME280;36272;59.400;17.982;2022-10-19T01:32:22;101872.25;;;6.08;75.52
50364;BME280;36272;59.400;17.982;2022-10-19T01:47:35;101867.56;;;5.93;75.75
50364;BME280;36272;59.400;17.982;2022-10-19T01:52:40;101887.97;;;5.93;75.63
50364;BME280;36272;59.400;17.982;2022-10-19T01:57:46;101874.34;;;5.88;75.92
50364;BME280;36272;59.400;17.982;2022-10-19T02:02:50;101879.84;;;5.86;75.74
50364;BME280;36272;59.400;17.982;2022-10-19T02:07:57;101875.50;;;5.85;75.70
50364;BME280;36272;59.400;17.982;2022-10-19T02:13:01;101878.63;;;5.80;75.75
50364;BME280;36272;59.400;17.982;2022-10-19T02:18:04;101884.13;;;5.79;75.86
50364;BME280;36272;59.400;17.982;2022-10-19T02:23:07;101903.19;;;5.74;75.86
50364;BME280;36272;59.400;17.982;2022-10-19T02:28:09;101902.69;;;5.71;75.90
50364;BME280;36272;59.400;17.982;2022-10-19T02:33:11;101911.28;;;5.64;76.25
50364;BME280;36272;59.400;17.982;2022-10-19T02:38:17;101901.28;;;5.58;76.33
50364;BME280;36272;59.400;17.982;2022-10-19T02:43:21;101906.94;;;5.55;76.21
50364;BME280;36272;59.400;17.982;2022-10-19T02:48:26;101909.75;;;5.54;76.37
50364;BME280;36272;59.400;17.982;2022-10-19T02:53:35;101898.94;;;5.47;76.54
50364;BME280;36272;59.400;17.982;2022-10-19T02:58:37;101931.94;;;5.44;76.88
50364;BME280;36272;59.400;17.982;2022-10-19T03:03:38;101925.13;;;5.42;76.80
50364;BME280;36272;59.400;17.982;2022-10-19T03:08:40;101937.41;;;5.43;76.78
50364;BME280;36272;59.400;17.982;2022-10-19T03:13:42;101929.75;;;5.40;76.74
50364;BME280;36272;59.400;17.982;2022-10-19T03:18:43;101934.22;;;5.39;76.99
50364;BME280;36272;59.400;17.982;2022-10-19T03:23:45;101933.72;;;5.35;76.95
50364;BME280;36272;59.400;17.982;2022-10-19T03:28:47;101942.66;;;5.34;76.96
50364;BME280;36272;59.400;17.982;2022-10-19T03:33:50;101926.88;;;5.33;76.99
50364;BME280;36272;59.400;17.982;2022-10-19T03:38:57;101937.97;;;5.28;77.05
50364;BME280;36272;59.400;17.982;2022-10-19T03:43:59;101956.41;;;5.30;77.10
50364;BME280;36272;59.400;17.982;2022-10-19T03:49:01;101956.88;;;5.25;77.31
50364;BME280;36272;59.400;17.982;2022-10-19T03:54:06;101948.09;;;5.25;77.09
50364;BME280;36272;59.400;17.982;2022-10-19T03:59:11;101952.84;;;5.21;77.07
50364;BME280;36272;59.400;17.982;2022-10-19T04:04:15;101962.13;;;5.17;77.44
50364;BME280;36272;59.400;17.982;2022-10-19T04:09:19;101964.94;;;5.15;77.53
50364;BME280;36272;59.400;17.982;2022-10-19T04:14:21;101974.69;;;5.15;77.71
50364;BME280;36272;59.400;17.982;2022-10-19T04:19:23;101969.69;;;5.12;77.69
50364;BME280;36272;59.400;17.982;2022-10-19T04:24:25;101972.53;;;5.10;77.59
50364;BME280;36272;59.400;17.982;2022-10-19T04:29:27;101991.56;;;5.05;77.57
50364;BME280;36272;59.400;17.982;2022-10-19T04:34:28;101981.78;;;5.06;77.79
50364;BME280;36272;59.400;17.982;2022-10-19T04:39:30;102000.34;;;5.06;77.80
50364;BME280;36272;59.400;17.982;2022-10-19T04:44:32;101996.19;;;5.03;77.73
50364;BME280;36272;59.400;17.982;2022-10-19T04:49:34;102007.91;;;5.01;77.85
50364;BME280;36272;59.400;17.982;2022-10-19T04:54:35;102000.13;;;4.99;77.92
50364;BME280;36272;59.400;17.982;2022-10-19T04:59:37;102006.41;;;4.98;78.03
50364;BME280;36272;59.400;17.982;2022-10-19T05:04:39;102033.38;;;4.94;78.22
50364;BME280;36272;59.400;17.982;2022-10-19T05:09:40;102044.28;;;4.90;78.29
50364;BME280;36272;59.400;17.982;2022-10-19T05:14:42;102043.78;;;4.87;78.19
50364;BME280;36272;59.400;17.982;2022-10-19T05:19:50;102030.81;;;4.84;78.62
50364;BME280;36272;59.400;17.982;2022-10-19T05:24:55;102045.06;;;4.83;78.60
50364;BME280;36272;59.400;17.982;2022-10-19T05:29:56;102056.94;;;4.79;78.61
50364;BME280;36272;59.400;17.982;2022-10-19T05:34:58;102048.00;;;4.80;78.38
50364;BME280;36272;59.400;17.982;2022-10-19T05:40:00;102059.75;;;4.77;78.60
50364;BME280;36272;59.400;17.982;2022-10-19T05:45:02;102054.59;;;4.75;78.84
50364;BME280;36272;59.400;17.982;2022-10-19T05:50:04;102054.47;;;4.77;78.62
50364;BME280;36272;59.400;17.982;2022-10-19T05:55:06;102046.50;;;4.77;78.91
50364;BME280;36272;59.400;17.982;2022-10-19T06:00:08;102056.13;;;4.78;78.63
50364;BME280;36272;59.400;17.982;2022-10-19T06:05:16;102052.50;;;4.79;78.83
50364;BME280;36272;59.400;17.982;2022-10-19T06:16:57;102077.63;;;4.75;78.98
50364;BME280;36272;59.400;17.982;2022-10-19T06:21:58;102071.56;;;4.83;78.92
50364;BME280;36272;59.400;17.982;2022-10-19T06:27:00;102073.41;;;4.82;78.81
50364;BME280;36272;59.400;17.982;2022-10-19T06:32:02;102074.09;;;4.84;78.99
50364;BME280;36272;59.400;17.982;2022-10-19T06:37:03;102096.28;;;4.83;79.03
50364;BME280;36272;59.400;17.982;2022-10-19T06:42:05;102084.69;;;4.84;79.25
50364;BME280;36272;59.400;17.982;2022-10-19T06:47:07;102091.19;;;4.90;79.06
50364;BME280;36272;59.400;17.982;2022-10-19T06:52:08;102104.97;;;4.94;79.12
50364;BME280;36272;59.400;17.982;2022-10-19T06:57:10;102109.00;;;4.98;78.98
50364;BME280;36272;59.400;17.982;2022-10-19T07:02:15;102114.69;;;5.03;79.13
50364;BME280;36272;59.400;17.982;2022-10-19T07:07:16;102113.25;;;5.09;79.07
50364;BME280;36272;59.400;17.982;2022-10-19T07:12:18;102110.66;;;5.17;78.72
50364;BME280;36272;59.400;17.982;2022-10-19T07:17:20;102123.31;;;5.23;78.89
50364;BME280;36272;59.400;17.982;2022-10-19T07:22:22;102127.56;;;5.34;78.97
50364;BME280;36272;59.400;17.982;2022-10-19T07:27:26;102136.13;;;5.46;78.64
50364;BME280;36272;59.400;17.982;2022-10-19T07:32:28;102129.06;;;5.55;78.45
50364;BME280;36272;59.400;17.982;2022-10-19T07:37:29;102152.84;;;5.64;78.37
50364;BME280;36272;59.400;17.982;2022-10-19T07:42:31;102151.78;;;5.75;78.29
50364;BME280;36272;59.400;17.982;2022-10-19T07:47:33;102151.69;;;5.85;77.84
50364;BME280;36272;59.400;17.982;2022-10-19T07:52:34;102153.56;;;5.93;78.08
50364;BME280;36272;59.400;17.982;2022-10-19T07:57:36;102169.28;;;6.04;77.57
50364;BME280;36272;59.400;17.982;2022-10-19T08:02:38;102166.81;;;6.11;77.51
50364;BME280;36272;59.400;17.982;2022-10-19T08:07:39;102170.34;;;6.20;77.55
50364;BME280;36272;59.400;17.982;2022-10-19T08:12:41;102170.25;;;6.30;77.23
50364;BME280;36272;59.400;17.982;2022-10-19T08:17:43;102174.94;;;6.36;76.96
50364;BME280;36272;59.400;17.982;2022-10-19T08:22:44;102181.94;;;6.45;76.76
50364;BME280;36272;59.400;17.982;2022-10-19T08:27:47;102183.66;;;6.54;76.74
50364;BME280;36272;59.400;17.982;2022-10-19T08:32:54;102167.25;;;6.59;76.41
50364;BME280;36272;59.400;17.982;2022-10-19T08:37:56;102189.06;;;6.71;76.73
50364;BME280;36272;59.400;17.982;2022-10-19T08:43:07;102173.63;;;6.83;76.29
50364;BME280;36272;59.400;17.982;2022-10-19T08:48:23;102170.00;;;6.92;75.75
50364;BME280;36272;59.400;17.982;2022-10-19T08:53:38;102170.53;;;7.04;75.61
50364;BME280;36272;59.400;17.982;2022-10-19T09:04:25;102184.88;;;7.28;75.63
50364;BME280;36272;59.400;17.982;2022-10-19T09:09:29;102198.69;;;7.40;74.81
50364;BME280;36272;59.400;17.982;2022-10-19T09:14:53;102183.56;;;7.49;74.92
50364;BME280;36272;59.400;17.982;2022-10-19T09:20:00;102183.56;;;7.57;74.57
50364;BME280;36272;59.400;17.982;2022-10-19T09:25:18;102183.06;;;7.70;74.06
50364;BME280;36272;59.400;17.982;2022-10-19T09:30:22;102184.56;;;7.81;73.91
50364;BME280;36272;59.400;17.982;2022-10-19T09:35:28;102203.19;;;7.97;73.63
50364;BME280;36272;59.400;17.982;2022-10-19T09:40:33;102185.19;;;8.08;73.46
50364;BME280;36272;59.400;17.982;2022-10-19T09:45:41;102180.84;;;8.15;73.24
50364;BME280;36272;59.400;17.982;2022-10-19T09:50:50;102185.16;;;8.24;72.75
50364;BME280;36272;59.400;17.982;2022-10-19T09:56:07;102192.13;;;8.33;72.79
50364;BME280;36272;59.400;17.982;2022-10-19T10:01:35;102186.78;;;8.50;72.49
50364;BME280;36272;59.400;17.982;2022-10-19T10:06:38;102191.03;;;8.68;72.19
50364;BME280;36272;59.400;17.982;2022-10-19T10:11:45;102194.28;;;8.86;71.63
50364;BME280;36272;59.400;17.982;2022-10-19T10:17:15;102201.50;;;9.09;71.15
50364;BME280;36272;59.400;17.982;2022-10-19T10:22:29;102192.19;;;9.28;70.89
50364;BME280;36272;59.400;17.982;2022-10-19T10:27:36;102183.91;;;9.46;70.79
50364;BME280;36272;59.400;17.982;2022-10-19T10:32:46;102174.78;;;9.56;69.79
50364;BME280;36272;59.400;17.982;2022-10-19T10:37:49;102183.25;;;9.67;69.72
50364;BME280;36272;59.400;17.982;2022-10-19T10:42:53;102175.31;;;9.74;69.15
50364;BME280;36272;59.400;17.982;2022-10-19T10:47:55;102183.28;;;9.82;68.91
50364;BME280;36272;59.400;17.982;2022-10-19T10:53:06;102178.50;;;9.93;68.47
50364;BME280;36272;59.400;17.982;2022-10-19T10:58:18;102184.41;;;10.03;67.70
50364;BME280;36272;59.400;17.982;2022-10-19T11:03:25;102179.63;;;10.14;68.27
50364;BME280;36272;59.400;17.982;2022-10-19T11:13:45;102179.00;;;10.56;67.25
50364;BME280;36272;59.400;17.982;2022-10-19T11:19:11;102180.53;;;10.81;66.62
50364;BME280;36272;59.400;17.982;2022-10-19T11:30:01;102188.31;;;13.03;62.12
50364;BME280;36272;59.400;17.982;2022-10-19T11:35:14;102197.53;;;12.81;61.55
50364;BME280;36272;59.400;17.982;2022-10-19T11:40:49;102193.81;;;13.71;60.51
50364;BME280;36272;59.400;17.982;2022-10-19T11:51:17;102188.41;;;15.15;58.32
50364;BME280;36272;59.400;17.982;2022-10-19T12:12:51;102179.50;;;17.15;53.24
50364;BME280;36272;59.400;17.982;2022-10-19T12:23:24;102190.13;;;16.48;54.41
50364;BME280;36272;59.400;17.982;2022-10-19T12:28:30;102179.63;;;15.77;55.46
50364;BME280;36272;59.400;17.982;2022-10-19T12:33:46;102177.91;;;15.32;55.11
50364;BME280;36272;59.400;17.982;2022-10-19T12:39:05;102180.25;;;14.90;55.27
50364;BME280;36272;59.400;17.982;2022-10-19T12:49:55;102186.34;;;13.73;56.74
50364;BME280;36272;59.400;17.982;2022-10-19T13:00:39;102180.97;;;13.52;57.25
50364;BME280;36272;59.400;17.982;2022-10-19T13:05:41;102174.38;;;13.68;57.07
50364;BME280;36272;59.400;17.982;2022-10-19T13:11:02;102171.06;;;13.60;56.68
50364;BME280;36272;59.400;17.982;2022-10-19T13:27:23;102165.94;;;12.83;58.28
50364;BME280;36272;59.400;17.982;2022-10-19T13:32:34;102165.88;;;12.62;58.75
50364;BME280;36272;59.400;17.982;2022-10-19T13:37:36;102174.75;;;12.63;58.92
50364;BME280;36272;59.400;17.982;2022-10-19T13:42:38;102174.97;;;12.68;59.08
50364;BME280;36272;59.400;17.982;2022-10-19T13:47:41;102157.50;;;12.86;58.63
50364;BME280;36272;59.400;17.982;2022-10-19T13:58:42;102165.78;;;12.91;57.63
50364;BME280;36272;59.400;17.982;2022-10-19T14:09:33;102154.03;;;12.43;58.71
50364;BME280;36272;59.400;17.982;2022-10-19T14:14:41;102154.75;;;12.24;59.48
50364;BME280;36272;59.400;17.982;2022-10-19T14:19:48;102159.81;;;12.05;59.30
50364;BME280;36272;59.400;17.982;2022-10-19T14:24:59;102154.72;;;11.88;59.30
50364;BME280;36272;59.400;17.982;2022-10-19T14:30:04;102154.81;;;11.73;59.59
50364;BME280;36272;59.400;17.982;2022-10-19T14:35:38;102149.31;;;11.53;59.48
50364;BME280;36272;59.400;17.982;2022-10-19T14:40:40;102146.00;;;11.29;60.04
50364;BME280;36272;59.400;17.982;2022-10-19T14:45:41;102165.19;;;11.11;59.96
50364;BME280;36272;59.400;17.982;2022-10-19T14:50:55;102149.19;;;10.96;60.24
50364;BME280;36272;59.400;17.982;2022-10-19T14:56:03;102143.50;;;10.84;60.92
50364;BME280;36272;59.400;17.982;2022-10-19T15:01:08;102142.69;;;10.69;60.97
50364;BME280;36272;59.400;17.982;2022-10-19T15:06:26;102143.00;;;10.59;61.22
50364;BME280;36272;59.400;17.982;2022-10-19T15:11:31;102150.03;;;10.45;61.81
50364;BME280;36272;59.400;17.982;2022-10-19T15:16:43;102171.69;;;10.35;62.13
50364;BME280;36272;59.400;17.982;2022-10-19T15:21:47;102163.78;;;10.27;62.41
50364;BME280;36272;59.400;17.982;2022-10-19T15:26:50;102164.22;;;10.16;62.32
50364;BME280;36272;59.400;17.982;2022-10-19T15:32:15;102155.06;;;9.95;62.96
50364;BME280;36272;59.400;17.982;2022-10-19T15:37:22;102158.84;;;9.86;63.17
50364;BME280;36272;59.400;17.982;2022-10-19T15:42:40;102157.78;;;9.72;63.44
50364;BME280;36272;59.400;17.982;2022-10-19T15:53:10;102170.38;;;9.48;63.95
50364;BME280;36272;59.400;17.982;2022-10-19T15:58:12;102158.06;;;9.38;64.39
50364;BME280;36272;59.400;17.982;2022-10-19T16:03:14;102175.16;;;9.29;64.57
50364;BME280;36272;59.400;17.982;2022-10-19T16:08:16;102183.06;;;9.22;64.49
50364;BME280;36272;59.400;17.982;2022-10-19T16:13:18;102180.63;;;9.13;64.69
50364;BME280;36272;59.400;17.982;2022-10-19T16:18:20;102190.34;;;9.05;65.21
50364;BME280;36272;59.400;17.982;2022-10-19T16:23:21;102179.91;;;8.96;65.26
50364;BME280;36272;59.400;17.982;2022-10-19T16:28:23;102182.41;;;8.89;65.54
50364;BME280;36272;59.400;17.982;2022-10-19T16:33:39;102164.28;;;8.84;65.46
50364;BME280;36272;59.400;17.982;2022-10-19T16:38:47;102161.66;;;8.76;65.81
50364;BME280;36272;59.400;17.982;2022-10-19T16:43:53;102160.69;;;8.69;65.84
50364;BME280;36272;59.400;17.982;2022-10-19T16:48:55;102175.72;;;8.61;66.18
50364;BME280;36272;59.400;17.982;2022-10-19T16:53:57;102157.09;;;8.53;66.18
50364;BME280;36272;59.400;17.982;2022-10-19T16:59:04;102158.44;;;8.49;66.44
50364;BME280;36272;59.400;17.982;2022-10-19T17:04:06;102174.75;;;8.46;66.41
50364;BME280;36272;59.400;17.982;2022-10-19T17:09:08;102174.78;;;8.38;66.64
50364;BME280;36272;59.400;17.982;2022-10-19T17:14:19;102177.13;;;8.32;66.55
50364;BME280;36272;59.400;17.982;2022-10-19T17:19:20;102183.97;;;8.27;67.05
50364;BME280;36272;59.400;17.982;2022-10-19T17:24:23;102173.16;;;8.20;67.04
50364;BME280;36272;59.400;17.982;2022-10-19T17:29:25;102176.69;;;8.12;67.16
50364;BME280;36272;59.400;17.982;2022-10-19T17:34:27;102172.22;;;8.04;67.50
50364;BME280;36272;59.400;17.982;2022-10-19T17:39:29;102178.69;;;8.02;67.80
50364;BME280;36272;59.400;17.982;2022-10-19T17:44:30;102183.53;;;7.98;67.72
50364;BME280;36272;59.400;17.982;2022-10-19T17:49:34;102181.22;;;7.95;67.99
50364;BME280;36272;59.400;17.982;2022-10-19T17:54:35;102193.72;;;7.95;68.09
50364;BME280;36272;59.400;17.982;2022-10-19T17:59:38;102193.38;;;7.89;68.11
50364;BME280;36272;59.400;17.982;2022-10-19T18:04:39;102172.75;;;7.83;68.39
50364;BME280;36272;59.400;17.982;2022-10-19T18:09:41;102185.72;;;7.78;68.21
50364;BME280;36272;59.400;17.982;2022-10-19T18:14:43;102177.22;;;7.74;68.54
50364;BME280;36272;59.400;17.982;2022-10-19T18:19:45;102182.72;;;7.73;68.42
50364;BME280;36272;59.400;17.982;2022-10-19T18:37:14;102183.91;;;7.62;68.57
50364;BME280;36272;59.400;17.982;2022-10-19T18:48:31;102173.25;;;7.54;68.52
50364;BME280;36272;59.400;17.982;2022-10-19T19:27:30;102159.75;;;7.31;69.87
50364;BME280;36272;59.400;17.982;2022-10-19T19:39:23;102153.59;;;7.13;70.46
50364;BME280;36272;59.400;17.982;2022-10-19T19:44:24;102167.38;;;7.17;70.40
50364;BME280;36272;59.400;17.982;2022-10-19T19:49:32;102173.56;;;7.18;70.55
50364;BME280;36272;59.400;17.982;2022-10-19T19:54:42;102156.41;;;7.12;70.77
50364;BME280;36272;59.400;17.982;2022-10-19T19:59:44;102175.88;;;7.12;71.01
50364;BME280;36272;59.400;17.982;2022-10-19T20:04:45;102173.53;;;7.09;71.19
50364;BME280;36272;59.400;17.982;2022-10-19T20:09:47;102174.03;;;7.05;71.24
50364;BME280;36272;59.400;17.982;2022-10-19T20:14:48;102185.50;;;7.05;71.37
50364;BME280;36272;59.400;17.982;2022-10-19T20:19:50;102182.16;;;7.03;71.70
50364;BME280;36272;59.400;17.982;2022-10-19T20:24:52;102184.16;;;7.01;71.46
50364;BME280;36272;59.400;17.982;2022-10-19T20:29:53;102192.47;;;6.98;71.84
50364;BME280;36272;59.400;17.982;2022-10-19T20:35:01;102187.81;;;7.00;72.19
50364;BME280;36272;59.400;17.982;2022-10-19T20:40:06;102171.50;;;6.95;72.07
50364;BME280;36272;59.400;17.982;2022-10-19T20:45:12;102163.84;;;6.92;72.27
50364;BME280;36272;59.400;17.982;2022-10-19T20:50:13;102170.69;;;6.94;72.33
50364;BME280;36272;59.400;17.982;2022-10-19T20:55:18;102148.72;;;6.92;72.29
50364;BME280;36272;59.400;17.982;2022-10-19T21:00:23;102164.16;;;6.89;72.31
50364;BME280;36272;59.400;17.982;2022-10-19T21:05:25;102165.16;;;6.79;72.30
50364;BME280;36272;59.400;17.982;2022-10-19T21:10:31;102152.16;;;6.68;73.00
50364;BME280;36272;59.400;17.982;2022-10-19T21:15:33;102164.06;;;6.55;72.86
50364;BME280;36272;59.400;17.982;2022-10-19T21:20:35;102169.31;;;6.47;73.12
50364;BME280;36272;59.400;17.982;2022-10-19T21:25:36;102172.13;;;6.37;73.31
50364;BME280;36272;59.400;17.982;2022-10-19T21:30:38;102169.72;;;6.26;73.57
50364;BME280;36272;59.400;17.982;2022-10-19T21:35:39;102159.56;;;6.21;73.89
50364;BME280;36272;59.400;17.982;2022-10-19T21:40:41;102161.56;;;6.19;73.89
50364;BME280;36272;59.400;17.982;2022-10-19T21:45:42;102153.91;;;6.16;74.48
50364;BME280;36272;59.400;17.982;2022-10-19T21:50:44;102131.91;;;6.06;74.30
50364;BME280;36272;59.400;17.982;2022-10-19T21:55:47;102123.03;;;5.97;74.86
50364;BME280;36272;59.400;17.982;2022-10-19T22:00:48;102135.44;;;5.88;75.32
50364;BME280;36272;59.400;17.982;2022-10-19T22:05:51;102118.66;;;5.88;75.48
50364;BME280;36272;59.400;17.982;2022-10-19T22:10:52;102122.94;;;5.80;75.73
50364;BME280;36272;59.400;17.982;2022-10-19T22:15:54;102134.41;;;5.81;76.20
50364;BME280;36272;59.400;17.982;2022-10-19T22:20:55;102129.78;;;5.83;76.60
50364;BME280;36272;59.400;17.982;2022-10-19T22:25:57;102128.78;;;5.84;76.56
50364;BME280;36272;59.400;17.982;2022-10-19T22:30:59;102118.84;;;5.86;76.73
50364;BME280;36272;59.400;17.982;2022-10-19T22:36:03;102107.91;;;5.89;76.85
50364;BME280;36272;59.400;17.982;2022-10-19T22:41:05;102116.88;;;5.88;76.90
50364;BME280;36272;59.400;17.982;2022-10-19T22:46:07;102126.19;;;5.92;77.01
50364;BME280;36272;59.400;17.982;2022-10-19T22:51:08;102122.84;;;5.90;77.15
50364;BME280;36272;59.400;17.982;2022-10-19T22:56:11;102108.59;;;5.91;77.47
50364;BME280;36272;59.400;17.982;2022-10-19T23:01:14;102097.09;;;5.91;77.46
50364;BME280;36272;59.400;17.982;2022-10-19T23:18:12;102130.13;;;5.88;77.41
50364;BME280;36272;59.400;17.982;2022-10-19T23:23:14;102125.13;;;5.85;77.72
50364;BME280;36272;59.400;17.982;2022-10-19T23:28:15;102127.13;;;5.83;77.88
50364;BME280;36272;59.400;17.982;2022-10-19T23:33:17;102118.16;;;5.84;77.52
50364;BME280;36272;59.400;17.982;2022-10-19T23:38:18;102125.75;;;5.79;77.61
50364;BME280;36272;59.400;17.982;2022-10-19T23:43:20;102114.09;;;5.72;77.65
50364;BME280;36272;59.400;17.982;2022-10-19T23:48:22;102107.59;;;5.66;77.66
50364;BME280;36272;59.400;17.982;2022-10-19T23:53:25;102097.91;;;5.57;77.77
50364;BME280;36272;59.400;17.982;2022-10-19T23:58:27;102099.34;;;5.51;77.97
